Time;durP1;ratioP1;P1;durP2;ratioP2;P2;SDS_P1;SDS_P2;PMS_P1;PMS_P2;Temp;Humidity;BMP_temperature;BMP_pressure;BME280_temperature;BME280_humidity;BME280_pressure;Samples;Min_cycle;Max_cycle;Signal;HPM_P1;HPM_P2
2023/04/29 00:01:40;;;;;;;4.38;3.97;;;;;;;10.88;100.00;97895.75;15294185;19;20435;-76
2023/04/29 00:07:04;;;;;;;4.10;3.70;;;;;;;10.86;100.00;97898.63;15293908;19;20007;-76
2023/04/29 00:12:30;;;;;;;4.05;3.63;;;;;;;10.81;100.00;97890.25;15296299;19;20019;-76
2023/04/29 00:17:58;;;;;;;3.97;3.60;;;;;;;10.78;100.00;97883.34;15291159;19;20011;-76
2023/04/29 00:23:23;;;;;;;3.97;3.58;;;;;;;10.76;100.00;97884.53;15297491;19;20025;-76
2023/04/29 00:28:48;;;;;;;3.90;3.60;;;;;;;10.73;100.00;97888.41;15299829;19;20014;-78
2023/04/29 00:34:17;;;;;;;3.60;3.30;;;;;;;10.72;100.00;97896.66;15297228;19;20074;-76
2023/04/29 00:39:41;;;;;;;3.58;3.28;;;;;;;10.76;100.00;97908.78;15295286;19;20031;-76
2023/04/29 00:45:07;;;;;;;3.78;3.47;;;;;;;10.78;100.00;97904.06;15289123;19;20009;-76
2023/04/29 00:50:35;;;;;;;3.40;3.10;;;;;;;10.77;100.00;97913.16;15293264;19;20056;-76
2023/04/29 00:56:01;;;;;;;3.95;3.65;;;;;;;10.76;100.00;97914.16;15285481;19;20069;-76
2023/04/29 01:01:26;;;;;;;3.92;3.63;;;;;;;10.78;100.00;97934.53;15284541;19;20019;-76
2023/04/29 01:07:06;;;;;;;3.60;3.30;;;;;;;10.82;100.00;97924.22;15285123;19;20015;-76
2023/04/29 01:12:35;;;;;;;3.72;3.40;;;;;;;10.83;100.00;97943.94;15292562;19;20678;-76
2023/04/29 01:18:09;;;;;;;3.30;3.03;;;;;;;10.85;100.00;97940.06;15347326;19;20002;-76
2023/04/29 01:23:36;;;;;;;3.72;3.42;;;;;;;10.88;100.00;97945.09;15290066;19;20010;-80
2023/04/29 01:29:10;;;;;;;3.80;3.50;;;;;;;10.91;100.00;97944.75;15323088;19;20022;-81
2023/04/29 01:34:44;;;;;;;4.20;3.80;;;;;;;10.93;100.00;97941.88;15344973;19;20026;-81
2023/04/29 01:40:20;;;;;;;4.40;4.07;;;;;;;10.94;100.00;97946.25;15350769;19;20026;-81
2023/04/29 01:45:59;;;;;;;4.50;4.10;;;;;;;10.99;100.00;97945.72;15341713;19;20385;-78
2023/04/29 01:51:25;;;;;;;4.60;4.20;;;;;;;11.02;100.00;97951.59;15317836;19;20018;-78
2023/04/29 01:56:53;;;;;;;4.47;4.07;;;;;;;11.07;100.00;97951.94;15300141;19;20059;-78
2023/04/29 02:02:43;;;;;;;4.70;4.30;;;;;;;11.10;100.00;97954.28;15297654;19;20015;-80
2023/04/29 02:08:23;;;;;;;4.43;4.03;;;;;;;11.14;100.00;97951.22;15299924;19;20010;-79
2023/04/29 02:13:51;;;;;;;4.90;4.45;;;;;;;11.17;100.00;97953.56;15302223;19;20033;-79
2023/04/29 02:19:17;;;;;;;5.30;4.70;;;;;;;11.19;100.00;97951.53;15301507;19;20599;-78
2023/04/29 02:24:51;;;;;;;4.75;4.35;;;;;;;11.21;100.00;97958.41;15312372;19;20504;-77
2023/04/29 02:30:18;;;;;;;5.05;4.63;;;;;;;11.18;100.00;97956.06;15354963;19;20010;-80
2023/04/29 02:35:50;;;;;;;4.82;4.40;;;;;;;11.16;100.00;97959.97;15303685;19;20015;-80
2023/04/29 02:41:18;;;;;;;5.03;4.28;;;;;;;11.13;100.00;97965.69;15300113;19;20022;-80
2023/04/29 02:46:46;;;;;;;5.03;4.60;;;;;;;11.15;100.00;97961.84;15296772;19;20492;-81
2023/04/29 02:52:12;;;;;;;5.13;4.13;;;;;;;11.13;100.00;97954.91;15304963;19;20019;-79
2023/04/29 02:57:38;;;;;;;4.55;4.13;;;;;;;11.08;100.00;97944.66;15303211;19;20010;-77
2023/04/29 03:03:13;;;;;;;4.53;4.13;;;;;;;11.01;100.00;97944.53;15300206;19;20377;-77
2023/04/29 03:08:37;;;;;;;5.30;4.50;;;;;;;11.00;100.00;97942.84;15290274;19;20017;-78
2023/04/29 03:14:02;;;;;;;4.47;4.07;;;;;;;10.97;100.00;97943.22;15298930;19;20022;-78
2023/04/29 03:19:30;;;;;;;5.20;4.35;;;;;;;10.92;100.00;97943.75;15303981;19;20247;-78
2023/04/29 03:24:56;;;;;;;5.00;4.50;;;;;;;10.92;100.00;97942.91;15300934;19;20010;-78
2023/04/29 03:30:21;;;;;;;4.70;4.30;;;;;;;10.91;100.00;97960.06;15305904;19;20018;-79
2023/04/29 03:35:49;;;;;;;4.63;4.20;;;;;;;10.90;100.00;97963.78;15300918;19;20014;-79
2023/04/29 03:41:44;;;;;;;5.30;4.72;;;;;;;10.89;100.00;97964.78;15303251;19;20014;-78
2023/04/29 03:47:10;;;;;;;5.43;4.82;;;;;;;10.83;100.00;97962.81;15296891;19;20014;-78
2023/04/29 03:52:38;;;;;;;6.50;5.10;;;;;;;10.81;100.00;97971.09;15314816;19;20014;-79
2023/04/29 03:58:04;;;;;;;4.95;4.45;;;;;;;10.81;100.00;97978.31;15311643;19;20353;-79
2023/04/29 04:03:35;;;;;;;5.18;4.78;;;;;;;10.82;100.00;97985.38;15309952;19;20006;-79
2023/04/29 04:09:02;;;;;;;5.60;5.10;;;;;;;10.81;100.00;97991.78;15315074;19;20121;-78
2023/04/29 04:14:28;;;;;;;5.30;4.80;;;;;;;10.78;100.00;98009.97;15320101;19;20105;-78
2023/04/29 04:19:54;;;;;;;5.30;4.80;;;;;;;10.75;100.00;98026.50;15316849;19;20014;-78
2023/04/29 04:25:22;;;;;;;5.20;4.70;;;;;;;10.72;100.00;98039.44;15316608;19;20010;-78
2023/04/29 04:31:13;;;;;;;4.93;4.38;;;;;;;10.76;100.00;98052.41;15315128;19;20002;-78
2023/04/29 04:36:39;;;;;;;4.85;4.20;;;;;;;10.79;100.00;98060.16;15306385;19;20044;-78
2023/04/29 04:42:08;;;;;;;5.03;4.53;;;;;;;10.86;100.00;98059.47;15310547;19;20018;-78
2023/04/29 04:47:35;;;;;;;5.57;3.90;;;;;;;10.88;100.00;98065.53;15304649;19;20280;-79
2023/04/29 04:53:05;;;;;;;6.10;3.97;;;;;;;10.91;100.00;98067.88;15306655;19;20031;-78
2023/04/29 04:58:39;;;;;;;4.88;4.38;;;;;;;10.94;100.00;98072.94;15304376;19;20021;-78
2023/04/29 05:04:04;;;;;;;4.75;4.20;;;;;;;10.93;100.00;98066.72;15305210;19;20029;-78
2023/04/29 05:09:28;;;;;;;4.10;3.70;;;;;;;11.02;100.00;98064.81;15299952;19;20038;-79
2023/04/29 05:14:57;;;;;;;4.13;3.60;;;;;;;11.06;100.00;98068.84;15292455;19;20391;-77
2023/04/29 05:20:23;;;;;;;3.90;3.50;;;;;;;11.13;100.00;98068.16;15293622;19;20014;-78
2023/04/29 05:25:48;;;;;;;3.90;3.50;;;;;;;11.21;100.00;98070.84;15290487;19;20013;-78
2023/04/29 05:31:19;;;;;;;3.45;3.15;;;;;;;11.25;100.00;98054.13;15299814;19;20019;-80
2023/04/29 05:36:47;;;;;;;3.13;2.83;;;;;;;11.29;100.00;98038.44;15297691;19;20019;-77
2023/04/29 05:42:17;;;;;;;2.95;2.75;;;;;;;11.33;100.00;98042.47;15326223;19;20022;-77
2023/04/29 05:47:44;;;;;;;3.30;3.00;;;;;;;11.34;100.00;98043.31;15331756;19;20037;-78
2023/04/29 05:53:13;;;;;;;3.42;3.13;;;;;;;11.37;100.00;98041.09;15312969;19;20038;-79
2023/04/29 05:58:38;;;;;;;3.03;2.83;;;;;;;11.38;100.00;98042.78;15306044;19;20011;-78
2023/04/29 06:04:05;;;;;;;3.25;2.83;;;;;;;11.44;100.00;98035.84;15335981;19;20018;-79
2023/04/29 06:09:42;;;;;;;3.13;2.85;;;;;;;11.48;100.00;98042.56;14801956;19;9999974;-77
2023/04/29 06:15:10;;;;;;;3.78;3.17;;;;;;;11.52;100.00;98026.84;15288914;19;20015;-77
2023/04/29 06:20:37;;;;;;;3.25;3.00;;;;;;;11.52;100.00;98024.16;15291781;19;20007;-78
2023/04/29 06:26:03;;;;;;;3.60;3.30;;;;;;;11.59;100.00;98030.53;15289862;19;20017;-77
2023/04/29 06:31:29;;;;;;;3.25;3.00;;;;;;;11.54;100.00;98041.00;15304518;19;20042;-77
2023/04/29 06:37:01;;;;;;;3.35;2.90;;;;;;;11.57;100.00;98041.50;15294733;19;20515;-78
2023/04/29 06:42:54;;;;;;;3.65;3.30;;;;;;;11.49;100.00;98046.09;15306628;19;20007;-79
2023/04/29 06:48:47;;;;;;;3.95;3.55;;;;;;;11.53;100.00;98055.53;15309677;19;20504;-78
2023/04/29 06:54:14;;;;;;;4.38;3.60;;;;;;;11.50;100.00;98055.88;15284506;19;20409;-77
2023/04/29 06:59:40;;;;;;;3.90;3.60;;;;;;;11.46;100.00;98058.09;15290417;19;20650;-77
2023/04/29 07:05:13;;;;;;;3.83;3.42;;;;;;;11.46;100.00;98059.94;15289639;19;20058;-78
2023/04/29 07:10:41;;;;;;;4.07;3.25;;;;;;;11.43;100.00;98061.13;15292300;19;20014;-79
2023/04/29 07:16:08;;;;;;;3.60;3.30;;;;;;;11.41;100.00;98069.41;15294277;19;20484;-78
2023/04/29 07:21:34;;;;;;;3.97;3.67;;;;;;;11.26;100.00;98079.22;15312476;19;20047;-78
2023/04/29 07:27:03;;;;;;;3.90;3.60;;;;;;;11.31;100.00;98094.88;15304617;19;20583;-78
2023/04/29 07:32:28;;;;;;;3.88;3.58;;;;;;;11.32;100.00;98097.44;15287896;19;20018;-76
2023/04/29 07:37:52;;;;;;;4.63;3.90;;;;;;;11.39;100.00;98103.78;15303410;19;20077;-76
2023/04/29 07:43:20;;;;;;;4.07;3.65;;;;;;;11.38;100.00;98115.59;15316944;19;20054;-77
2023/04/29 07:48:46;;;;;;;3.35;3.05;;;;;;;11.40;100.00;98121.66;15305717;19;20007;-76
2023/04/29 07:54:15;;;;;;;2.63;2.40;;;;;;;11.39;100.00;98103.78;15302839;19;20031;-77
2023/04/29 07:59:43;;;;;;;3.70;2.60;;;;;;;11.43;100.00;98114.25;15300818;19;20011;-78
2023/04/29 08:05:16;;;;;;;2.88;2.67;;;;;;;11.44;100.00;98126.72;15300514;19;20014;-78
2023/04/29 08:10:42;;;;;;;2.97;2.70;;;;;;;11.53;100.00;98133.75;15299878;19;20011;-77
2023/04/29 08:16:11;;;;;;;3.22;2.53;;;;;;;11.66;100.00;98130.47;15292693;19;20014;-77
2023/04/29 08:21:36;;;;;;;2.40;2.20;;;;;;;11.69;100.00;98138.25;15313489;19;20006;-78
2023/04/29 08:27:00;;;;;;;3.22;2.40;;;;;;;11.62;100.00;98146.19;15308879;19;20041;-78
2023/04/29 08:32:28;;;;;;;3.15;2.85;;;;;;;11.62;100.00;98148.06;15311562;19;20094;-77
2023/04/29 08:37:53;;;;;;;2.78;2.53;;;;;;;11.76;100.00;98146.47;15316118;19;20019;-77
2023/04/29 08:43:18;;;;;;;3.88;2.20;;;;;;;11.92;100.00;98150.94;15345848;19;20010;-77
2023/04/29 08:48:48;;;;;;;2.33;2.13;;;;;;;12.06;100.00;98149.38;15347674;19;20027;-78
2023/04/29 08:54:14;;;;;;;2.88;2.47;;;;;;;12.13;100.00;98148.50;15338563;19;20015;-77
2023/04/29 08:59:39;;;;;;;2.70;2.50;;;;;;;12.11;100.00;98149.69;15302295;19;20095;-78
2023/04/29 09:05:18;;;;;;;2.45;2.25;;;;;;;12.09;100.00;98170.63;15295898;19;20736;-77
2023/04/29 09:10:44;;;;;;;3.50;2.67;;;;;;;12.14;100.00;98173.66;15300801;19;20516;-77
2023/04/29 09:16:10;;;;;;;2.33;2.13;;;;;;;12.29;100.00;98162.94;15296989;19;20012;-78
2023/04/29 09:21:38;;;;;;;3.15;2.40;;;;;;;12.34;100.00;98163.25;15304479;19;20033;-77
2023/04/29 09:27:04;;;;;;;2.45;2.15;;;;;;;12.40;100.00;98175.19;15311845;19;20031;-76
2023/04/29 09:32:30;;;;;;;2.38;2.17;;;;;;;12.35;100.00;98188.38;15343846;19;20015;-76
2023/04/29 09:37:59;;;;;;;2.45;2.25;;;;;;;12.31;100.00;98193.31;15288762;19;20018;-77
2023/04/29 09:43:24;;;;;;;2.63;2.28;;;;;;;12.27;100.00;98217.13;15293840;19;20054;-77
2023/04/29 09:48:48;;;;;;;2.33;2.10;;;;;;;12.31;100.00;98204.94;15287693;19;20101;-77
2023/04/29 09:54:22;;;;;;;2.35;2.10;;;;;;;12.32;100.00;98209.31;15284173;19;20046;-77
2023/04/29 09:59:49;;;;;;;2.50;2.30;;;;;;;12.25;100.00;98212.91;15296094;19;20018;-78
2023/04/29 10:05:31;;;;;;;3.10;2.35;;;;;;;12.30;100.00;98232.97;15294589;19;20099;-76
2023/04/29 10:11:01;;;;;;;2.85;2.65;;;;;;;12.20;100.00;98224.25;15315683;19;20018;-76
2023/04/29 10:16:36;;;;;;;2.80;2.60;;;;;;;12.33;100.00;98246.13;15292045;19;20010;-77
2023/04/29 10:22:07;;;;;;;2.97;2.70;;;;;;;12.24;100.00;98236.38;15296268;19;20023;-77
2023/04/29 10:27:36;;;;;;;2.72;2.53;;;;;;;12.24;100.00;98232.81;15285135;19;20022;-76
2023/04/29 10:33:03;;;;;;;3.00;2.70;;;;;;;12.22;100.00;98243.81;15290112;19;20378;-77
2023/04/29 10:38:36;;;;;;;2.80;2.60;;;;;;;12.29;100.00;98244.78;15276178;19;20018;-76
2023/04/29 10:44:03;;;;;;;2.80;2.60;;;;;;;12.19;100.00;98249.56;15277742;19;20355;-76
2023/04/29 10:49:30;;;;;;;2.95;2.65;;;;;;;12.08;100.00;98241.84;15279628;19;20178;-77
2023/04/29 10:55:06;;;;;;;2.90;2.60;;;;;;;11.98;100.00;98252.88;15295436;19;20014;-77
2023/04/29 11:00:36;;;;;;;3.13;2.53;;;;;;;11.90;100.00;98256.41;15299782;19;20021;-77
2023/04/29 11:06:17;;;;;;;2.80;2.60;;;;;;;11.70;100.00;98264.88;15297884;19;20006;-77
2023/04/29 11:11:43;;;;;;;2.80;2.60;;;;;;;11.67;100.00;98273.34;15291145;19;20379;-77
2023/04/29 11:17:22;;;;;;;2.80;2.60;;;;;;;11.47;100.00;98274.72;15292629;19;20036;-78
2023/04/29 11:22:53;;;;;;;3.47;2.88;;;;;;;11.41;100.00;98285.19;15307093;19;20014;-78
2023/04/29 11:28:18;;;;;;;3.35;3.00;;;;;;;11.35;100.00;98288.53;15303243;19;20087;-79
2023/04/29 11:33:45;;;;;;;3.30;3.00;;;;;;;11.32;100.00;98301.53;15303860;19;20026;-78
2023/04/29 11:39:11;;;;;;;4.82;4.40;;;;;;;11.25;100.00;98304.94;15301755;19;20015;-78
2023/04/29 11:44:37;;;;;;;8.48;7.43;;;;;;;11.12;100.00;98317.19;15297592;19;20054;-78
2023/04/29 11:50:11;;;;;;;9.40;8.40;;;;;;;11.07;100.00;98336.56;15297881;19;20016;-78
2023/04/29 11:55:38;;;;;;;9.57;8.57;;;;;;;11.03;100.00;98352.25;15300620;19;20131;-79
2023/04/29 12:01:02;;;;;;;10.63;8.82;;;;;;;11.07;100.00;98358.16;15303019;19;20510;-78
2023/04/29 12:06:32;;;;;;;10.10;9.10;;;;;;;11.07;100.00;98364.41;15292801;19;20509;-78
2023/04/29 12:11:57;;;;;;;9.00;8.10;;;;;;;11.06;100.00;98362.72;15293114;19;20025;-77
2023/04/29 12:17:26;;;;;;;7.30;6.60;;;;;;;11.10;100.00;98357.81;15290798;19;20017;-78
2023/04/29 12:22:53;;;;;;;6.93;6.22;;;;;;;11.23;100.00;98368.13;15300280;19;20021;-78
2023/04/29 12:28:22;;;;;;;5.68;5.18;;;;;;;11.30;100.00;98360.19;15299746;19;20010;-77
2023/04/29 12:33:51;;;;;;;4.72;4.30;;;;;;;11.44;100.00;98361.41;15300647;19;20070;-77
2023/04/29 12:39:18;;;;;;;3.58;3.03;;;;;;;11.41;100.00;98359.84;15300380;19;20016;-78
2023/04/29 12:44:45;;;;;;;3.13;2.67;;;;;;;11.56;100.00;98368.13;15304877;19;20011;-79
2023/04/29 12:50:13;;;;;;;2.83;2.60;;;;;;;11.60;100.00;98380.25;15311772;19;20014;-77
2023/04/29 12:55:40;;;;;;;2.20;2.08;;;;;;;11.76;100.00;98365.09;15339622;19;20018;-77
2023/04/29 13:01:05;;;;;;;2.40;2.20;;;;;;;11.93;100.00;98368.59;15299283;19;20015;-82
2023/04/29 13:06:38;;;;;;;2.20;2.00;;;;;;;11.96;100.00;98363.69;15298980;19;20395;-78
2023/04/29 13:12:08;;;;;;;1.92;1.83;;;;;;;12.10;100.00;98364.03;15299525;19;20015;-78
2023/04/29 13:17:32;;;;;;;2.30;2.10;;;;;;;12.43;100.00;98364.78;15295667;19;20014;-78
2023/04/29 13:22:57;;;;;;;2.17;1.90;;;;;;;12.71;100.00;98366.19;15300354;19;20011;-78
2023/04/29 13:28:24;;;;;;;2.13;1.92;;;;;;;12.77;100.00;98366.31;15300003;19;20045;-78
2023/04/29 13:33:49;;;;;;;1.70;1.60;;;;;;;12.78;100.00;98351.78;15299391;19;20022;-79
2023/04/29 13:39:14;;;;;;;2.83;1.80;;;;;;;12.80;100.00;98359.72;15296751;19;20021;-78
2023/04/29 13:44:44;;;;;;;3.13;1.65;;;;;;;12.77;100.00;98354.66;15294169;19;20015;-78
2023/04/29 13:50:10;;;;;;;1.80;1.70;;;;;;;12.85;100.00;98360.03;15295271;19;20024;-78
2023/04/29 13:55:55;;;;;;;1.65;1.48;;;;;;;12.84;100.00;98363.75;15292741;19;20007;-77
2023/04/29 14:01:26;;;;;;;1.60;1.50;;;;;;;12.65;100.00;98367.75;15301582;19;20014;-78
2023/04/29 14:06:54;;;;;;;1.63;1.42;;;;;;;12.64;100.00;98364.19;15293558;19;20014;-78
2023/04/29 14:12:19;;;;;;;1.50;1.40;;;;;;;12.55;100.00;98372.50;15271804;19;20031;-78
2023/04/29 14:17:48;;;;;;;2.00;1.90;;;;;;;12.62;100.00;98379.75;15302338;19;20017;-78
2023/04/29 14:23:13;;;;;;;1.50;1.40;;;;;;;12.55;100.00;98388.72;15305984;19;20023;-78
2023/04/29 14:28:42;;;;;;;1.50;1.40;;;;;;;12.39;100.00;98392.34;15295154;19;20023;-79
2023/04/29 14:34:02;;;;;;;2.10;1.90;;;;;;;12.27;100.00;98397.25;15350076;19;20025;-79
2023/04/29 14:39:27;;;;;;;1.70;1.60;;;;;;;12.09;100.00;98403.72;15301510;19;20022;-78
2023/04/29 14:44:52;;;;;;;1.85;1.60;;;;;;;12.10;100.00;98401.84;15299830;19;20365;-78
2023/04/29 14:50:22;;;;;;;2.03;1.63;;;;;;;11.99;100.00;98409.28;15298947;19;20078;-78
2023/04/29 14:55:46;;;;;;;3.03;1.92;;;;;;;12.03;100.00;98417.88;15303288;19;20031;-78
2023/04/29 15:01:11;;;;;;;2.80;2.00;;;;;;;12.11;100.00;98422.44;15307598;19;20604;-78
2023/04/29 15:06:46;;;;;;;2.92;2.15;;;;;;;11.97;100.00;98432.88;15301819;19;20010;-78
2023/04/29 15:12:13;;;;;;;2.00;1.80;;;;;;;12.01;100.00;98431.56;15301127;19;20054;-78
2023/04/29 15:17:37;;;;;;;1.98;1.42;;;;;;;11.96;100.00;98442.00;15302474;19;20007;-78
2023/04/29 15:23:05;;;;;;;1.70;1.60;;;;;;;11.92;100.00;98442.50;15299202;19;20019;-78
2023/04/29 15:28:29;;;;;;;1.88;1.73;;;;;;;11.84;100.00;98435.25;15297168;19;20015;-78
2023/04/29 15:33:56;;;;;;;1.48;1.38;;;;;;;11.84;100.00;98438.81;15298309;19;20039;-77
2023/04/29 15:39:25;;;;;;;1.95;1.70;;;;;;;11.80;100.00;98450.13;15336051;19;20067;-77
2023/04/29 15:44:51;;;;;;;1.70;1.50;;;;;;;11.82;100.00;98454.31;15350929;19;20014;-79
2023/04/29 15:50:16;;;;;;;2.45;1.80;;;;;;;11.78;100.00;98455.66;15355604;19;20012;-79
2023/04/29 15:55:43;;;;;;;2.25;1.90;;;;;;;11.77;100.00;98466.63;15327952;19;20011;-78
2023/04/29 16:01:08;;;;;;;2.97;2.10;;;;;;;11.82;100.00;98469.66;15329230;19;20025;-79
2023/04/29 16:06:39;;;;;;;1.77;1.50;;;;;;;11.84;100.00;98490.09;15308757;19;20026;-79
2023/04/29 16:12:10;;;;;;;1.80;1.70;;;;;;;11.83;100.00;98483.00;15311973;19;20478;-78
2023/04/29 16:17:34;;;;;;;2.42;2.10;;;;;;;11.85;100.00;98494.47;15306558;19;20007;-78
2023/04/29 16:22:59;;;;;;;2.00;1.80;;;;;;;11.90;100.00;98488.56;15339050;19;20062;-78
2023/04/29 16:28:26;;;;;;;2.95;2.28;;;;;;;11.89;100.00;98492.28;15335866;19;20007;-77
2023/04/29 16:33:51;;;;;;;3.03;2.20;;;;;;;11.77;100.00;98501.72;15292883;19;20010;-78
2023/04/29 16:39:15;;;;;;;3.97;2.33;;;;;;;11.62;100.00;98507.78;15296271;19;20073;-77
2023/04/29 16:44:44;;;;;;;3.95;2.83;;;;;;;11.51;100.00;98517.03;15296052;19;20018;-78
2023/04/29 16:50:08;;;;;;;4.30;2.50;;;;;;;11.52;100.00;98534.06;15297079;19;20021;-77
2023/04/29 16:55:35;;;;;;;3.83;2.53;;;;;;;11.44;100.00;98531.34;15296962;19;20074;-78
2023/04/29 17:01:03;;;;;;;3.08;2.83;;;;;;;11.36;100.00;98530.28;15302566;19;20485;-77
2023/04/29 17:06:38;;;;;;;4.13;2.85;;;;;;;11.38;100.00;98532.84;15287894;19;20475;-77
2023/04/29 17:12:05;;;;;;;2.95;2.75;;;;;;;11.38;100.00;98532.84;15296507;19;20039;-78
2023/04/29 17:17:32;;;;;;;3.33;2.80;;;;;;;11.41;100.00;98537.91;15291197;19;20367;-78
2023/04/29 17:22:57;;;;;;;3.10;2.72;;;;;;;11.41;100.00;98544.16;15297710;19;20007;-78
2023/04/29 17:28:21;;;;;;;4.47;3.10;;;;;;;11.43;100.00;98545.84;15295649;19;20046;-78
2023/04/29 17:33:54;;;;;;;2.88;2.65;;;;;;;11.36;100.00;98543.78;15297372;19;20437;-78
2023/04/29 17:39:18;;;;;;;3.20;2.90;;;;;;;11.35;100.00;98560.97;15294553;19;20010;-77
2023/04/29 17:44:43;;;;;;;4.20;3.10;;;;;;;11.27;100.00;98563.66;15297596;19;20022;-77
2023/04/29 17:50:10;;;;;;;3.70;3.20;;;;;;;11.22;100.00;98566.84;15296681;19;20608;-78
2023/04/29 17:55:36;;;;;;;3.33;3.00;;;;;;;11.20;100.00;98573.41;15296866;19;20021;-78
2023/04/29 18:01:00;;;;;;;4.20;3.63;;;;;;;11.16;100.00;98580.13;15299205;19;20019;-78
2023/04/29 18:06:34;;;;;;;3.58;3.28;;;;;;;11.10;100.00;98579.78;15295240;19;20023;-78
2023/04/29 18:12:00;;;;;;;3.60;3.28;;;;;;;11.07;100.00;98590.88;15295765;19;20010;-78
2023/04/29 18:17:25;;;;;;;3.90;3.50;;;;;;;11.05;100.00;98590.19;15295215;19;20014;-78
2023/04/29 18:22:53;;;;;;;4.90;3.35;;;;;;;11.03;100.00;98604.84;15302627;19;20385;-78
2023/04/29 18:28:18;;;;;;;4.05;3.65;;;;;;;10.99;100.00;98609.72;15301338;19;20473;-78
2023/04/29 18:33:44;;;;;;;3.95;3.38;;;;;;;10.98;100.00;98613.41;15297508;19;20014;-78
2023/04/29 18:39:12;;;;;;;4.28;3.58;;;;;;;11.00;100.00;98615.94;15301713;19;20029;-78
2023/04/29 18:44:37;;;;;;;3.80;3.50;;;;;;;10.93;100.00;98621.97;15293978;19;20484;-78
2023/04/29 18:50:02;;;;;;;3.78;3.45;;;;;;;10.90;100.00;98621.41;15299007;19;20098;-78
2023/04/29 18:55:30;;;;;;;4.18;3.50;;;;;;;10.87;100.00;98635.22;15301233;19;20026;-78
2023/04/29 19:00:56;;;;;;;7.40;3.58;;;;;;;10.78;100.00;98647.78;15311576;19;20049;-78
2023/04/29 19:06:27;;;;;;;4.28;3.60;;;;;;;10.71;100.00;98658.34;15334826;19;20019;-78
2023/04/29 19:11:55;;;;;;;4.03;3.63;;;;;;;10.72;100.00;98657.34;15293224;19;20780;-78
2023/04/29 19:17:20;;;;;;;4.57;3.80;;;;;;;10.73;100.00;98664.44;15297861;19;20014;-77
2023/04/29 19:22:45;;;;;;;5.30;3.50;;;;;;;10.75;100.00;98666.97;15310233;19;20046;-78
2023/04/29 19:28:12;;;;;;;7.20;4.00;;;;;;;10.72;100.00;98670.81;15308244;19;20010;-78
2023/04/29 19:33:37;;;;;;;4.20;3.70;;;;;;;10.69;100.00;98673.81;15305494;19;20042;-78
2023/04/29 19:39:03;;;;;;;3.95;3.60;;;;;;;10.67;100.00;98675.81;15310601;19;20102;-78
2023/04/29 19:44:31;;;;;;;4.10;3.50;;;;;;;10.61;100.00;98682.69;15309491;19;20014;-78
2023/04/29 19:49:55;;;;;;;5.50;3.83;;;;;;;10.55;100.00;98687.84;15310014;19;20113;-78
2023/04/29 19:55:20;;;;;;;4.63;4.07;;;;;;;10.48;100.00;98690.31;15329119;19;20031;-79
2023/04/29 20:00:47;;;;;;;4.18;3.78;;;;;;;10.43;100.00;98690.78;15352317;19;20014;-78
2023/04/29 20:06:18;;;;;;;5.50;4.20;;;;;;;10.32;100.00;98697.22;15294293;19;20018;-78
2023/04/29 20:11:43;;;;;;;4.33;3.70;;;;;;;10.27;100.00;98702.19;15299265;19;20010;-78
2023/04/29 20:17:10;;;;;;;6.78;4.00;;;;;;;10.24;100.00;98707.88;15293681;19;20015;-77
2023/04/29 20:22:36;;;;;;;5.75;3.42;;;;;;;10.21;100.00;98696.56;15299527;19;20018;-78
2023/04/29 20:28:00;;;;;;;4.82;3.80;;;;;;;10.15;100.00;98704.28;15297318;19;20021;-78
2023/04/29 20:33:28;;;;;;;4.80;3.92;;;;;;;10.12;100.00;98704.56;15294321;19;20085;-80
2023/04/29 20:38:53;;;;;;;5.22;3.90;;;;;;;10.09;100.00;98710.25;15295454;19;20445;-79
2023/04/29 20:44:18;;;;;;;5.43;4.05;;;;;;;10.12;100.00;98709.09;15297630;19;20108;-79
2023/04/29 20:49:46;;;;;;;4.25;3.83;;;;;;;10.11;100.00;98707.44;15295984;19;20022;-80
2023/04/29 20:55:12;;;;;;;5.50;4.00;;;;;;;10.09;100.00;98710.25;15291505;19;20010;-79
2023/04/29 21:00:39;;;;;;;4.20;3.80;;;;;;;10.09;100.00;98709.41;15297895;19;20453;-79
2023/04/29 21:06:07;;;;;;;5.78;3.90;;;;;;;10.11;100.00;98724.41;15287461;19;20536;-77
2023/04/29 21:11:31;;;;;;;4.60;4.10;;;;;;;10.12;100.00;98726.09;15295684;19;20698;-78
2023/04/29 21:16:57;;;;;;;5.30;4.00;;;;;;;10.14;100.00;98729.50;15293500;19;20363;-78
2023/04/29 21:22:24;;;;;;;5.20;3.85;;;;;;;10.15;100.00;98731.19;15301086;19;20010;-78
2023/04/29 21:27:49;;;;;;;5.00;4.00;;;;;;;10.24;100.00;98733.97;15296617;19;20018;-78
2023/04/29 21:33:14;;;;;;;5.55;3.70;;;;;;;10.28;100.00;98738.06;15297436;19;20006;-79
2023/04/29 21:38:45;;;;;;;5.32;4.20;;;;;;;10.21;100.00;98739.66;15299025;19;20632;-79
2023/04/29 21:44:10;;;;;;;4.63;4.00;;;;;;;10.13;100.00;98738.56;15290691;19;20006;-77
2023/04/29 21:49:35;;;;;;;6.65;4.00;;;;;;;10.12;100.00;98734.19;15287649;19;20014;-77
2023/04/29 21:55:09;;;;;;;6.00;3.85;;;;;;;10.10;100.00;98733.47;15292132;19;20026;-77
2023/04/29 22:00:35;;;;;;;5.70;4.20;;;;;;;10.04;100.00;98734.09;15285861;19;20024;-78
2023/04/29 22:06:06;;;;;;;7.13;4.20;;;;;;;10.03;100.00;98730.53;15283971;19;20015;-77
2023/04/29 22:11:34;;;;;;;5.50;4.00;;;;;;;9.98;100.00;98729.31;15286239;19;20544;-77
2023/04/29 22:16:59;;;;;;;6.00;4.20;;;;;;;9.92;100.00;98728.06;15281232;19;20010;-77
2023/04/29 22:22:24;;;;;;;4.97;4.20;;;;;;;9.87;100.00;98738.44;15289290;19;20025;-77
2023/04/29 22:27:53;;;;;;;4.47;3.97;;;;;;;9.79;100.00;98735.63;15282369;19;20017;-77
2023/04/29 22:33:24;;;;;;;5.82;4.30;;;;;;;9.71;100.00;98741.75;15277003;19;20873;-49
2023/04/29 22:38:49;;;;;;;4.40;4.00;;;;;;;9.63;100.00;98744.31;15275094;19;20014;-48
2023/04/29 22:44:17;;;;;;;5.50;4.47;;;;;;;9.50;100.00;98747.34;15278460;19;20014;-47
2023/04/29 22:49:42;;;;;;;5.72;4.43;;;;;;;9.48;100.00;98752.84;15279858;19;20018;-51
2023/04/29 22:55:08;;;;;;;6.05;4.25;;;;;;;9.43;100.00;98752.47;15286463;19;20438;-51
2023/04/29 23:00:36;;;;;;;5.40;4.40;;;;;;;9.42;100.00;98756.16;15281959;19;20015;-49
2023/04/29 23:06:05;;;;;;;6.03;4.80;;;;;;;9.36;100.00;98757.59;15291101;19;20017;-48
2023/04/29 23:11:30;;;;;;;5.10;4.28;;;;;;;9.29;100.00;98766.38;15287208;19;20021;-48
2023/04/29 23:16:57;;;;;;;4.88;4.38;;;;;;;9.18;100.00;98764.66;15289336;19;20373;-51
2023/04/29 23:22:23;;;;;;;5.68;4.72;;;;;;;9.08;100.00;98770.09;15291632;19;20031;-50
2023/04/29 23:27:48;;;;;;;5.45;4.95;;;;;;;9.04;100.00;98771.34;15287099;19;20049;-50
2023/04/29 23:33:22;;;;;;;5.45;4.70;;;;;;;8.89;100.00;98779.84;15280740;19;20023;-50
2023/04/29 23:38:47;;;;;;;5.28;4.75;;;;;;;8.76;100.00;98773.94;15287118;19;20036;-48
2023/04/29 23:44:11;;;;;;;5.82;4.88;;;;;;;8.61;100.00;98777.00;15288482;19;20356;-48
2023/04/29 23:49:39;;;;;;;7.13;5.40;;;;;;;8.45;100.00;98779.34;15286238;19;20038;-48
2023/04/29 23:55:03;;;;;;;6.80;5.47;;;;;;;8.33;100.00;98787.53;15284697;19;20015;-47
